Terminal Aerodrome Forecast
Issued by NWS

Home | Current Version | Previous Version | Graphics & Text | Print | Product List | Glossary On
Versions: 1 2 3 4 5 6 7 8 9 10 11 12 13 14 15 16 17 18 19 20 21 22 23 24 25 26 27 28
000
FTUS43 KABR 101527 AAB
TAFPIR
TAF AMD
KPIR 101527Z 1015/1112 08010KT P6SM -SN OVC035
     FM101700 10014KT P6SM OVC025
     FM102000 10015KT 5SM -SN OVC010
     FM110900 02008KT P6SM OVC003=

USA.gov is the U.S. government's official web portal to all federal, state and local government web resources and services.